Time;durP1;ratioP1;P1;durP2;ratioP2;P2;SDS_P1;SDS_P2;PMS_P1;PMS_P2;Temp;Humidity;BMP_temperature;BMP_pressure;BME280_temperature;BME280_humidity;BME280_pressure;Samples;Min_cycle;Max_cycle;Signal;HPM_P1;HPM_P2
2023/12/16 00:02:03;;;;;;;5.93;2.77;;;;;;;18.75;58.32;102715.19;4932742;28;20441;-75
2023/12/16 00:04:28;;;;;;;7.03;2.87;;;;;;;18.74;58.40;102714.38;4938270;28;20521;-74
2023/12/16 00:06:53;;;;;;;5.33;2.90;;;;;;;18.72;58.39;102719.56;4932963;28;20235;-75
2023/12/16 00:09:19;;;;;;;5.40;2.73;;;;;;;18.75;58.30;102718.06;4952656;28;20194;-74
2023/12/16 00:11:44;;;;;;;5.40;2.53;;;;;;;18.75;58.39;102724.66;4936938;28;20186;-74
2023/12/16 00:14:10;;;;;;;5.20;2.90;;;;;;;18.74;58.29;102724.97;4918804;29;20180;-74
2023/12/16 00:16:35;;;;;;;4.70;2.70;;;;;;;18.79;58.37;102733.41;4918513;29;20167;-74
2023/12/16 00:19:01;;;;;;;5.00;2.60;;;;;;;18.74;58.61;102731.53;4932968;28;20178;-72
2023/12/16 00:21:26;;;;;;;3.70;2.23;;;;;;;18.71;58.51;102726.44;4940987;28;20167;-72
2023/12/16 00:23:51;;;;;;;4.60;2.27;;;;;;;18.76;57.99;102726.31;4940536;28;20551;-73
2023/12/16 00:26:18;;;;;;;6.70;2.50;;;;;;;18.74;58.20;102719.25;4941272;28;20638;-73
2023/12/16 00:28:43;;;;;;;4.53;2.50;;;;;;;18.71;58.62;102726.44;4940524;28;20658;-73
2023/12/16 00:31:09;;;;;;;5.13;2.50;;;;;;;18.72;58.09;102733.88;4944071;28;20417;-73
2023/12/16 00:33:34;;;;;;;4.67;2.90;;;;;;;18.72;58.56;102736.72;4960770;28;20178;-72
2023/12/16 00:36:00;;;;;;;3.93;2.23;;;;;;;18.69;58.64;102733.66;4955347;28;20190;-73
2023/12/16 00:38:25;;;;;;;4.53;2.80;;;;;;;18.69;59.13;102728.81;4941592;28;20288;-72
2023/12/16 00:40:50;;;;;;;4.23;2.13;;;;;;;18.65;58.63;102719.16;4942287;28;20187;-72
2023/12/16 00:43:16;;;;;;;5.07;3.10;;;;;;;18.66;58.63;102706.56;4955059;28;20239;-74
2023/12/16 00:45:41;;;;;;;4.20;2.57;;;;;;;18.69;58.67;102700.19;4963327;28;20248;-73
2023/12/16 00:48:07;;;;;;;5.07;2.13;;;;;;;18.70;58.48;102696.16;4949129;28;20269;-72
2023/12/16 00:50:32;;;;;;;6.20;2.20;;;;;;;18.70;58.35;102706.75;4954338;29;20191;-72
2023/12/16 00:52:58;;;;;;;5.50;2.20;;;;;;;18.67;58.21;102702.50;4922764;29;20168;-72
2023/12/16 00:55:24;;;;;;;9.33;2.77;;;;;;;18.70;58.03;102701.88;4925508;29;20187;-72
2023/12/16 00:57:49;;;;;;;5.70;2.63;;;;;;;18.66;58.56;102691.41;4922476;29;20553;-72
2023/12/16 01:00:15;;;;;;;6.00;3.00;;;;;;;18.64;58.45;102688.88;4927557;29;20439;-73
2023/12/16 01:02:40;;;;;;;4.87;2.20;;;;;;;18.65;58.67;102701.16;4938575;29;20198;-72
2023/12/16 01:05:06;;;;;;;5.50;2.70;;;;;;;18.67;59.17;102699.66;4938089;28;20175;-72
2023/12/16 01:07:32;;;;;;;7.10;2.70;;;;;;;18.65;58.60;102690.56;4945062;28;20265;-72
2023/12/16 01:09:57;;;;;;;3.97;2.30;;;;;;;18.65;58.58;102699.16;4941223;28;20178;-72
2023/12/16 01:12:23;;;;;;;4.90;2.60;;;;;;;18.64;58.92;102702.31;4939728;28;20197;-72
2023/12/16 01:14:49;;;;;;;4.67;2.30;;;;;;;18.68;58.13;102701.38;4940320;28;20630;-72
2023/12/16 01:17:14;;;;;;;5.30;2.17;;;;;;;18.68;58.72;102709.09;4953545;28;20190;-73
2023/12/16 01:19:39;;;;;;;5.33;2.50;;;;;;;18.65;58.91;102710.59;4955772;28;20237;-72
2023/12/16 01:22:05;;;;;;;7.10;2.60;;;;;;;18.67;58.27;102713.13;4953289;28;20190;-72
2023/12/16 01:24:32;;;;;;;4.63;2.40;;;;;;;18.64;58.89;102711.75;4924201;28;20249;-73
2023/12/16 01:26:57;;;;;;;3.67;1.90;;;;;;;18.64;58.39;102717.50;4924734;28;20203;-72
2023/12/16 01:29:23;;;;;;;4.00;2.33;;;;;;;18.62;58.71;102711.22;4956588;28;20410;-74
2023/12/16 01:31:48;;;;;;;4.10;2.50;;;;;;;18.62;58.45;102719.81;4955215;28;20194;-75
2023/12/16 01:34:14;;;;;;;5.33;2.50;;;;;;;18.61;58.97;102732.41;4924277;28;20273;-74
2023/12/16 01:36:39;;;;;;;5.23;2.50;;;;;;;18.62;58.95;102728.38;4956359;28;20190;-74
2023/12/16 01:39:04;;;;;;;6.13;2.97;;;;;;;18.60;58.91;102724.16;4940372;28;20856;-74
2023/12/16 01:41:30;;;;;;;5.33;2.53;;;;;;;18.58;58.98;102727.38;4927627;28;20626;-74
2023/12/16 01:43:55;;;;;;;5.33;2.20;;;;;;;18.60;59.12;102727.00;4940549;28;20210;-74
2023/12/16 01:46:21;;;;;;;5.30;2.60;;;;;;;18.60;58.86;102736.47;4926669;28;20206;-74
2023/12/16 01:48:46;;;;;;;7.80;2.50;;;;;;;18.59;58.27;102720.47;4940578;28;20198;-74
2023/12/16 01:51:12;;;;;;;6.63;2.73;;;;;;;18.60;59.14;102725.03;4924283;28;20175;-74
2023/12/16 01:53:37;;;;;;;5.03;2.70;;;;;;;18.58;58.60;102721.66;4940291;28;20938;-74
2023/12/16 01:56:03;;;;;;;5.47;2.93;;;;;;;18.56;58.94;102718.25;4926399;28;20217;-74
2023/12/16 01:58:28;;;;;;;4.70;2.60;;;;;;;18.57;58.91;102719.94;4955967;28;20218;-73
2023/12/16 02:00:54;;;;;;;3.97;2.40;;;;;;;18.59;59.06;102722.47;4939698;28;20183;-74
2023/12/16 02:03:20;;;;;;;7.90;2.57;;;;;;;18.56;59.05;102728.84;4948247;29;20186;-74
2023/12/16 02:05:46;;;;;;;4.87;2.30;;;;;;;18.56;59.56;102729.69;4926947;29;20618;-74
2023/12/16 02:08:11;;;;;;;4.47;2.70;;;;;;;18.55;59.22;102724.28;4946972;28;20469;-75
2023/12/16 02:10:37;;;;;;;3.60;2.60;;;;;;;18.55;59.12;102721.41;4954540;28;20603;-74
2023/12/16 02:13:03;;;;;;;6.33;2.63;;;;;;;18.54;58.86;102725.44;4922195;28;20225;-75
2023/12/16 02:15:28;;;;;;;6.90;3.17;;;;;;;18.56;58.94;102728.84;4938181;28;20174;-74
2023/12/16 02:17:54;;;;;;;4.80;2.20;;;;;;;18.54;59.11;102728.31;4924913;28;20436;-74
2023/12/16 02:20:19;;;;;;;4.60;2.33;;;;;;;18.55;58.90;102730.84;4955010;28;20197;-74
2023/12/16 02:22:48;;;;;;;4.60;2.30;;;;;;;18.54;59.50;102737.75;4938256;28;20603;-75
2023/12/16 02:25:14;;;;;;;5.03;2.43;;;;;;;18.53;59.05;102730.34;4939830;28;20174;-74
2023/12/16 02:27:40;;;;;;;5.30;2.67;;;;;;;18.55;58.57;102735.72;4936003;29;20538;-74
2023/12/16 02:30:07;;;;;;;5.43;2.50;;;;;;;18.55;58.91;102738.59;4920683;29;20190;-74
2023/12/16 02:32:33;;;;;;;4.97;2.23;;;;;;;18.53;59.00;102753.22;4937208;29;20443;-74
2023/12/16 02:34:58;;;;;;;4.77;2.47;;;;;;;18.52;59.67;102745.78;4946742;28;20515;-74
2023/12/16 02:37:24;;;;;;;8.83;2.50;;;;;;;18.52;59.59;102745.78;4955199;28;20262;-74
2023/12/16 02:39:49;;;;;;;8.73;2.87;;;;;;;18.53;59.16;102755.22;4937373;28;20187;-73
2023/12/16 02:42:14;;;;;;;4.13;2.20;;;;;;;18.54;59.19;102754.06;4933665;28;20294;-75
2023/12/16 02:44:40;;;;;;;5.47;2.40;;;;;;;18.52;59.41;102756.41;4920156;29;20163;-74
2023/12/16 02:47:07;;;;;;;5.30;2.50;;;;;;;18.54;59.07;102754.91;4954013;28;20201;-74
2023/12/16 02:49:32;;;;;;;5.10;2.87;;;;;;;18.52;58.85;102759.28;4954294;28;20190;-75
2023/12/16 02:51:58;;;;;;;4.30;2.50;;;;;;;18.51;59.11;102755.56;4939114;28;20487;-75
2023/12/16 02:54:25;;;;;;;5.17;2.80;;;;;;;18.49;58.99;102757.91;4938846;28;20190;-74
2023/12/16 02:56:50;;;;;;;4.37;2.27;;;;;;;18.48;58.71;102753.34;4938832;28;20485;-75
2023/12/16 02:59:16;;;;;;;5.13;2.60;;;;;;;18.48;59.25;102756.22;4935625;28;20431;-74
2023/12/16 03:01:41;;;;;;;7.60;2.80;;;;;;;18.49;59.24;102760.75;4946103;28;20228;-74
2023/12/16 03:04:06;;;;;;;4.60;2.30;;;;;;;18.49;58.83;102757.91;4940553;28;20185;-74
2023/12/16 03:06:32;;;;;;;5.30;2.50;;;;;;;18.48;59.26;102761.94;4956261;28;20306;-74
2023/12/16 03:08:57;;;;;;;5.23;2.60;;;;;;;18.51;58.26;102761.28;4956359;28;20189;-74
2023/12/16 03:11:23;;;;;;;6.10;2.77;;;;;;;18.50;59.08;102761.59;4953667;28;20183;-74
2023/12/16 03:13:48;;;;;;;4.30;2.40;;;;;;;18.48;59.62;102755.34;4971035;28;20163;-73
2023/12/16 03:16:14;;;;;;;5.37;2.77;;;;;;;18.46;59.36;102763.41;4953343;28;20205;-74
2023/12/16 03:18:39;;;;;;;4.40;2.20;;;;;;;18.48;59.04;102767.66;4934595;28;20213;-74
2023/12/16 03:21:06;;;;;;;4.37;2.43;;;;;;;18.47;59.03;102773.69;4938533;28;20179;-74
2023/12/16 03:23:31;;;;;;;4.17;2.40;;;;;;;18.47;59.54;102777.38;4947107;28;20191;-73
2023/12/16 03:25:57;;;;;;;5.97;2.87;;;;;;;18.46;58.90;102781.41;4919444;28;20929;-75
2023/12/16 03:28:22;;;;;;;5.10;2.63;;;;;;;18.48;58.82;102783.97;4951732;28;20681;-75
2023/12/16 03:30:48;;;;;;;5.00;2.40;;;;;;;18.46;59.35;102787.13;4936847;28;20187;-74
2023/12/16 03:33:13;;;;;;;4.67;2.53;;;;;;;18.44;59.33;102783.75;4926054;29;20905;-74
2023/12/16 03:35:39;;;;;;;5.50;2.30;;;;;;;18.45;59.44;102788.31;4913684;28;20202;-74
2023/12/16 03:38:04;;;;;;;4.07;2.30;;;;;;;18.45;59.09;102799.75;4954379;28;20599;-74
2023/12/16 03:40:29;;;;;;;7.13;2.97;;;;;;;18.45;58.85;102794.03;4953199;28;20509;-74
2023/12/16 03:42:55;;;;;;;4.80;2.60;;;;;;;18.47;58.92;102794.53;4937833;28;20511;-74
2023/12/16 03:45:21;;;;;;;3.30;1.90;;;;;;;18.45;59.44;102785.44;4954497;28;20189;-74
2023/12/16 03:47:46;;;;;;;3.77;2.27;;;;;;;18.45;58.83;102782.59;4916831;29;20269;-74
2023/12/16 03:50:12;;;;;;;4.03;2.17;;;;;;;18.46;58.94;102781.41;4922469;28;20244;-74
2023/12/16 03:52:37;;;;;;;5.33;2.20;;;;;;;18.46;59.52;102787.13;4936510;28;20182;-74
2023/12/16 03:55:03;;;;;;;4.03;2.17;;;;;;;18.44;59.09;102778.03;4920699;28;20183;-75
2023/12/16 03:57:29;;;;;;;6.03;2.90;;;;;;;18.46;59.32;102778.56;4937336;28;20189;-74
2023/12/16 03:59:56;;;;;;;4.53;2.10;;;;;;;18.43;59.09;102775.50;4922097;28;20446;-73
2023/12/16 04:02:22;;;;;;;4.33;2.60;;;;;;;18.42;58.43;102770.94;4921842;28;20426;-74
2023/12/16 04:04:47;;;;;;;5.33;2.53;;;;;;;18.46;59.21;102775.69;4937312;28;20525;-74
2023/12/16 04:07:13;;;;;;;3.53;2.07;;;;;;;18.45;59.10;102776.00;4937108;28;20202;-75
2023/12/16 04:09:39;;;;;;;3.50;1.90;;;;;;;18.40;58.91;102773.25;4950055;28;20190;-74
2023/12/16 04:12:05;;;;;;;3.80;2.23;;;;;;;18.42;59.40;102763.19;4919763;29;20276;-74
2023/12/16 04:14:31;;;;;;;4.77;2.30;;;;;;;18.42;59.19;102763.19;4947249;28;20540;-74
2023/12/16 04:16:56;;;;;;;3.97;2.50;;;;;;;18.41;59.32;102767.22;4938143;28;20182;-74
2023/12/16 04:19:22;;;;;;;4.23;2.07;;;;;;;18.42;59.02;102768.91;4922274;28;20619;-74
2023/12/16 04:21:47;;;;;;;4.70;2.57;;;;;;;18.43;59.30;102764.91;4937524;28;20194;-74
2023/12/16 04:24:12;;;;;;;4.77;2.90;;;;;;;18.41;59.00;102764.38;4937818;28;20229;-75
2023/12/16 04:26:38;;;;;;;4.17;2.30;;;;;;;18.41;58.93;102758.66;4936388;28;20249;-74
2023/12/16 04:29:03;;;;;;;4.00;2.00;;;;;;;18.39;59.52;102763.84;4924173;28;20205;-74
2023/12/16 04:31:29;;;;;;;4.93;2.20;;;;;;;18.42;58.68;102768.09;4943234;28;20178;-74
2023/12/16 04:33:55;;;;;;;4.27;2.60;;;;;;;18.40;59.01;102768.41;4931416;29;20234;-74
2023/12/16 04:36:20;;;;;;;3.70;2.50;;;;;;;18.40;58.80;102771.25;4904225;28;20191;-74
2023/12/16 04:38:46;;;;;;;4.67;2.40;;;;;;;18.41;59.02;102767.22;4935021;28;20926;-74
2023/12/16 04:41:14;;;;;;;4.50;2.40;;;;;;;18.40;59.50;102770.41;4918983;29;20539;-75
2023/12/16 04:43:39;;;;;;;3.27;2.10;;;;;;;18.42;59.20;102768.09;4903880;29;20643;-73
2023/12/16 04:46:05;;;;;;;4.20;2.47;;;;;;;18.43;58.72;102764.06;4936514;28;20428;-74
2023/12/16 04:48:31;;;;;;;4.70;2.20;;;;;;;18.42;58.77;102757.47;4933793;28;20304;-74
2023/12/16 04:50:56;;;;;;;4.40;1.90;;;;;;;18.42;59.01;102766.06;4937669;28;20548;-74
2023/12/16 04:53:22;;;;;;;4.20;2.00;;;;;;;18.42;59.16;102765.22;4919637;28;20302;-74
2023/12/16 04:55:47;;;;;;;5.23;2.67;;;;;;;18.37;59.02;102763.31;4919668;29;20582;-74
2023/12/16 04:58:13;;;;;;;3.67;2.10;;;;;;;18.40;59.22;102758.97;4918086;29;20283;-72
2023/12/16 05:00:38;;;;;;;4.50;2.40;;;;;;;18.40;58.78;102771.25;4934312;29;20562;-72
2023/12/16 05:03:03;;;;;;;4.67;2.60;;;;;;;18.39;59.22;102769.56;4962576;28;20623;-72
2023/12/16 05:05:29;;;;;;;3.70;2.20;;;;;;;18.42;59.30;102768.09;4918303;28;20290;-72
2023/12/16 05:07:54;;;;;;;3.63;2.07;;;;;;;18.42;58.73;102776.66;4927808;28;20206;-72
2023/12/16 05:10:20;;;;;;;3.57;1.83;;;;;;;18.43;58.40;102770.63;4941655;28;20534;-72
2023/12/16 05:12:45;;;;;;;5.03;2.30;;;;;;;18.42;58.92;102773.81;4945194;29;20179;-72
2023/12/16 05:15:11;;;;;;;7.23;2.33;;;;;;;18.42;58.67;102786.06;4922290;29;20619;-72
2023/12/16 05:17:36;;;;;;;3.90;2.50;;;;;;;18.43;58.64;102779.22;4923062;28;20209;-72
2023/12/16 05:20:02;;;;;;;4.43;2.20;;;;;;;18.42;59.04;102783.22;4940646;28;20173;-72
2023/12/16 05:22:33;;;;;;;4.20;2.30;;;;;;;18.42;58.52;102777.50;4941411;28;20197;-72
2023/12/16 05:24:59;;;;;;;5.17;2.23;;;;;;;18.41;58.74;102786.41;4923352;29;20437;-72
2023/12/16 05:27:25;;;;;;;5.10;2.40;;;;;;;18.41;58.89;102777.84;4912729;29;20470;-73
2023/12/16 05:29:50;;;;;;;3.33;2.00;;;;;;;18.42;58.80;102770.94;4940463;28;20948;-72
2023/12/16 05:32:16;;;;;;;4.63;2.20;;;;;;;18.43;58.92;102784.06;4955287;28;20183;-72
2023/12/16 05:34:41;;;;;;;4.20;1.80;;;;;;;18.43;59.65;102778.34;4956684;28;20214;-72
2023/12/16 05:37:06;;;;;;;3.53;1.97;;;;;;;18.43;58.81;102772.63;4939937;28;20233;-72
2023/12/16 05:39:32;;;;;;;4.17;2.00;;;;;;;18.43;58.68;102769.78;4956695;28;20175;-72
2023/12/16 05:41:58;;;;;;;5.23;2.37;;;;;;;18.43;58.78;102776.34;4952818;28;20193;-73
2023/12/16 05:44:23;;;;;;;3.57;2.00;;;;;;;18.43;58.30;102762.06;4920757;29;20185;-72
2023/12/16 05:46:48;;;;;;;4.57;2.40;;;;;;;18.43;59.18;102767.78;4935954;29;20191;-73
2023/12/16 05:49:14;;;;;;;3.80;1.93;;;;;;;18.43;58.65;102762.06;4929885;28;20186;-72
2023/12/16 05:51:40;;;;;;;4.97;2.27;;;;;;;18.41;58.88;102764.38;4937559;28;20186;-73
2023/12/16 05:54:07;;;;;;;3.80;2.27;;;;;;;18.44;58.61;102765.72;4938868;28;20194;-72
2023/12/16 05:56:33;;;;;;;3.80;2.03;;;;;;;18.42;59.03;102768.09;4938694;28;20916;-72
2023/12/16 05:58:58;;;;;;;3.50;2.00;;;;;;;18.41;58.91;102775.81;4935908;29;20447;-72
2023/12/16 06:01:23;;;;;;;4.10;2.37;;;;;;;18.41;58.82;102784.38;4930058;28;20191;-73
2023/12/16 06:03:49;;;;;;;3.10;2.00;;;;;;;18.41;58.69;102781.53;4923869;28;20187;-72
2023/12/16 06:06:15;;;;;;;3.10;1.80;;;;;;;18.45;58.75;102781.72;4938980;28;20181;-72
2023/12/16 06:08:41;;;;;;;4.47;2.20;;;;;;;18.43;58.87;102790.66;4935799;28;20186;-74
2023/12/16 06:11:12;;;;;;;3.80;2.13;;;;;;;18.46;58.83;102795.72;4951369;28;20934;-74
2023/12/16 06:13:39;;;;;;;4.13;2.30;;;;;;;18.45;58.60;102787.44;4937441;28;20190;-74
2023/12/16 06:16:05;;;;;;;3.50;1.77;;;;;;;18.43;59.17;102793.50;4939919;28;20433;-74
2023/12/16 06:18:31;;;;;;;4.23;2.57;;;;;;;18.45;58.96;102798.88;4953141;28;20431;-74
2023/12/16 06:20:56;;;;;;;4.20;2.60;;;;;;;18.46;59.06;102804.28;4939622;28;20457;-74
2023/12/16 06:23:22;;;;;;;5.40;2.40;;;;;;;18.44;58.88;102800.91;4939339;28;20186;-74
2023/12/16 06:25:47;;;;;;;4.00;2.07;;;;;;;18.43;58.77;102801.22;4939642;28;20221;-74
2023/12/16 06:28:12;;;;;;;4.43;2.20;;;;;;;18.42;58.97;102796.69;4921275;28;20218;-74
2023/12/16 06:30:39;;;;;;;3.00;2.20;;;;;;;18.42;58.81;102802.41;4939023;28;20248;-74
2023/12/16 06:33:05;;;;;;;3.03;2.07;;;;;;;18.43;58.98;102810.69;4963037;28;20679;-74
2023/12/16 06:35:30;;;;;;;5.37;2.93;;;;;;;18.43;58.89;102802.09;4923389;28;20466;-74
2023/12/16 06:37:55;;;;;;;4.20;2.07;;;;;;;18.47;58.15;102799.44;4939591;28;20230;-74
2023/12/16 06:40:21;;;;;;;4.07;2.00;;;;;;;18.45;58.47;102801.75;4939966;28;20193;-74
2023/12/16 06:42:46;;;;;;;4.23;2.37;;;;;;;18.44;59.15;102806.63;4952087;28;20630;-74
2023/12/16 06:45:12;;;;;;;3.80;2.17;;;;;;;18.44;58.95;102815.22;4940668;28;20178;-74
2023/12/16 06:47:40;;;;;;;3.17;2.23;;;;;;;18.44;58.77;102809.50;4957804;28;20205;-74
2023/12/16 06:50:08;;;;;;;3.93;2.20;;;;;;;18.46;58.37;102810.00;4974186;28;20186;-74
2023/12/16 06:52:33;;;;;;;3.87;2.40;;;;;;;18.44;59.07;102811.50;4930308;29;20439;-74
2023/12/16 06:54:59;;;;;;;5.90;2.40;;;;;;;18.46;58.76;102812.06;4919278;29;21005;-74
2023/12/16 06:57:24;;;;;;;3.40;1.90;;;;;;;18.44;59.05;102817.22;4912825;29;20183;-74
2023/12/16 06:59:50;;;;;;;3.97;2.43;;;;;;;18.46;58.56;102807.16;4935435;29;20194;-74
2023/12/16 07:02:15;;;;;;;3.37;1.90;;;;;;;18.46;58.74;102812.88;4943596;28;20281;-73
2023/12/16 07:04:41;;;;;;;3.07;1.70;;;;;;;18.44;59.00;102812.38;4957480;28;20182;-73
2023/12/16 07:07:07;;;;;;;2.87;1.73;;;;;;;18.45;58.47;102816.91;4941221;28;20206;-74
2023/12/16 07:09:32;;;;;;;3.77;2.37;;;;;;;18.44;58.64;102825.81;4938492;28;20177;-74
2023/12/16 07:11:57;;;;;;;5.80;2.30;;;;;;;18.46;58.53;102815.75;4935242;28;20178;-74
2023/12/16 07:14:23;;;;;;;3.80;1.73;;;;;;;18.45;58.86;102819.78;4938173;28;20182;-74
2023/12/16 07:16:49;;;;;;;3.60;2.03;;;;;;;18.47;58.45;102820.28;4922556;28;20198;-74
2023/12/16 07:19:14;;;;;;;4.13;2.37;;;;;;;18.44;58.80;102829.53;4922404;28;20217;-72
2023/12/16 07:21:43;;;;;;;3.30;1.70;;;;;;;18.46;58.45;102829.22;4938269;28;20238;-72
2023/12/16 07:24:08;;;;;;;3.80;1.97;;;;;;;18.45;58.58;102827.50;4919749;29;20215;-72
2023/12/16 07:26:35;;;;;;;3.37;2.10;;;;;;;18.46;58.93;102830.03;4937279;28;21010;-72
2023/12/16 07:29:01;;;;;;;4.20;2.20;;;;;;;18.47;58.80;102839.47;4953602;28;20194;-72
2023/12/16 07:31:26;;;;;;;4.20;2.50;;;;;;;18.47;58.34;102843.16;4927707;28;20440;-72
2023/12/16 07:33:52;;;;;;;3.00;1.80;;;;;;;18.48;58.09;102839.16;4973525;28;20206;-72
2023/12/16 07:36:18;;;;;;;3.50;1.77;;;;;;;18.47;58.54;102840.31;4953881;28;20181;-72
2023/12/16 07:38:43;;;;;;;2.77;2.10;;;;;;;18.46;58.83;102832.91;4925015;28;20245;-72
2023/12/16 07:41:08;;;;;;;3.43;2.00;;;;;;;18.48;58.70;102846.88;4937008;28;20436;-72
2023/12/16 07:43:34;;;;;;;4.03;2.33;;;;;;;18.46;58.96;102841.47;4922943;28;20593;-72
2023/12/16 07:46:00;;;;;;;3.70;2.07;;;;;;;18.45;59.16;102838.94;4928753;28;20178;-72
2023/12/16 07:48:26;;;;;;;4.13;2.40;;;;;;;18.45;58.67;102842.66;4952911;28;20651;-74
2023/12/16 07:50:53;;;;;;;3.90;2.17;;;;;;;18.48;58.53;102852.59;4933182;29;20423;-75
2023/12/16 07:53:22;;;;;;;3.30;1.80;;;;;;;18.46;58.88;102850.06;4934671;28;20638;-74
2023/12/16 07:55:48;;;;;;;4.53;2.00;;;;;;;18.47;58.25;102854.59;4952616;28;20445;-75
2023/12/16 07:58:14;;;;;;;3.80;1.90;;;;;;;18.49;58.49;102860.88;4954037;28;20734;-75
2023/12/16 08:00:40;;;;;;;3.40;2.17;;;;;;;18.50;58.19;102851.13;4943079;28;20454;-74
2023/12/16 08:03:06;;;;;;;3.80;2.17;;;;;;;18.50;58.29;102856.84;4972510;28;20295;-75
2023/12/16 08:05:32;;;;;;;3.13;1.60;;;;;;;18.51;58.54;102852.81;4940904;28;20432;-74
2023/12/16 08:07:58;;;;;;;5.23;1.93;;;;;;;18.47;59.18;102850.91;4950384;28;20719;-75
2023/12/16 08:10:23;;;;;;;3.47;1.90;;;;;;;18.50;58.83;102859.69;4925963;28;20448;-75
2023/12/16 08:12:49;;;;;;;4.23;1.90;;;;;;;18.49;58.52;102863.75;4937961;28;20182;-75
2023/12/16 08:15:15;;;;;;;3.87;2.17;;;;;;;18.49;59.00;102866.59;4953822;28;20200;-75
2023/12/16 08:17:40;;;;;;;4.00;2.00;;;;;;;18.49;58.91;102863.75;4921312;28;20626;-75
2023/12/16 08:20:06;;;;;;;2.90;2.03;;;;;;;18.52;58.48;102870.84;4905988;29;20295;-75
2023/12/16 08:22:33;;;;;;;3.50;1.90;;;;;;;18.48;59.02;102864.91;4918437;29;20178;-75
2023/12/16 08:24:58;;;;;;;4.90;2.27;;;;;;;18.50;58.15;102862.56;4918843;29;20803;-74
2023/12/16 08:27:24;;;;;;;3.97;1.97;;;;;;;18.49;58.99;102866.59;4912090;29;20462;-73
2023/12/16 08:29:49;;;;;;;3.47;1.97;;;;;;;18.47;58.46;102863.19;4920332;29;20636;-69
2023/12/16 08:32:15;;;;;;;2.93;1.70;;;;;;;18.48;58.35;102870.63;4943141;28;20529;-71
2023/12/16 08:34:41;;;;;;;3.30;1.93;;;;;;;18.48;58.43;102876.34;4942295;29;20230;-70
2023/12/16 08:37:06;;;;;;;3.13;2.07;;;;;;;18.51;58.32;102880.59;4947743;28;20489;-69
2023/12/16 08:39:32;;;;;;;3.20;1.80;;;;;;;18.50;58.81;102874.00;4954517;28;20186;-70
2023/12/16 08:41:57;;;;;;;4.57;2.13;;;;;;;18.50;59.02;102882.59;4940910;28;20649;-70
2023/12/16 08:44:23;;;;;;;2.90;2.00;;;;;;;18.51;58.56;102884.28;4938696;29;20175;-70
2023/12/16 08:46:48;;;;;;;4.33;2.07;;;;;;;18.50;58.19;102882.59;4945006;28;20206;-70
2023/12/16 08:49:14;;;;;;;3.70;2.23;;;;;;;18.50;59.01;102890.31;4923049;29;20718;-70
2023/12/16 08:51:39;;;;;;;2.40;1.57;;;;;;;18.56;58.10;102891.94;4907874;29;20237;-69
2023/12/16 08:54:05;;;;;;;3.73;2.20;;;;;;;18.54;58.00;102897.97;4924108;28;20183;-69
2023/12/16 08:56:30;;;;;;;3.00;1.87;;;;;;;18.52;57.87;102891.69;4928789;28;20217;-70
2023/12/16 08:58:55;;;;;;;5.10;2.30;;;;;;;18.54;58.11;102895.09;4943262;28;20184;-69
2023/12/16 09:01:21;;;;;;;2.87;1.73;;;;;;;18.54;58.51;102894.25;4941349;28;20186;-70
2023/12/16 09:03:46;;;;;;;2.93;1.93;;;;;;;18.53;58.14;102899.13;4943592;28;20178;-69
2023/12/16 09:06:13;;;;;;;2.83;1.87;;;;;;;18.51;57.90;102904.31;4941674;28;20620;-69
2023/12/16 09:08:38;;;;;;;2.83;1.60;;;;;;;18.54;58.26;102914.25;4942323;28;20207;-70
2023/12/16 09:11:04;;;;;;;2.80;1.93;;;;;;;18.51;58.47;102910.03;4958173;28;20429;-70
2023/12/16 09:13:29;;;;;;;4.83;2.40;;;;;;;18.57;57.82;102907.91;4958413;28;20167;-69
2023/12/16 09:15:55;;;;;;;3.63;2.13;;;;;;;18.52;58.06;102910.88;4925859;28;20187;-69
2023/12/16 09:18:20;;;;;;;3.20;2.00;;;;;;;18.54;58.20;102909.41;4907666;29;20172;-69
2023/12/16 09:20:46;;;;;;;3.60;1.97;;;;;;;18.57;58.72;102916.50;4923382;29;20186;-69
2023/12/16 09:23:11;;;;;;;2.80;2.00;;;;;;;18.55;58.76;102921.69;4907789;29;20179;-70
2023/12/16 09:25:37;;;;;;;2.70;1.73;;;;;;;18.54;58.34;102922.84;4945986;28;20179;-69
2023/12/16 09:28:02;;;;;;;3.47;1.97;;;;;;;18.54;58.18;102931.44;4925183;28;20206;-70
2023/12/16 09:30:28;;;;;;;2.73;1.70;;;;;;;18.55;58.04;102919.69;4958469;28;20162;-69
2023/12/16 09:32:53;;;;;;;3.10;2.00;;;;;;;18.55;58.66;102922.53;4956550;28;20213;-70
2023/12/16 09:35:18;;;;;;;2.80;1.70;;;;;;;18.56;58.40;102932.81;4940621;28;20198;-70
2023/12/16 09:37:44;;;;;;;3.20;2.00;;;;;;;18.53;57.96;102933.47;4923071;28;20226;-75
2023/12/16 09:40:10;;;;;;;2.50;1.63;;;;;;;18.57;58.24;102936.53;4904796;29;20190;-74
2023/12/16 09:42:38;;;;;;;4.00;1.80;;;;;;;18.55;58.64;102945.41;4934166;28;20190;-75
2023/12/16 09:45:04;;;;;;;2.73;1.83;;;;;;;18.55;58.61;102948.28;4956094;28;20178;-75
2023/12/16 09:47:30;;;;;;;2.90;1.90;;;;;;;18.56;58.31;102941.38;4963402;28;20465;-74
2023/12/16 09:49:59;;;;;;;3.40;2.07;;;;;;;18.55;58.31;102938.84;4939612;28;20465;-75
2023/12/16 09:52:25;;;;;;;3.20;1.80;;;;;;;18.58;58.46;102936.22;4956126;28;20493;-74
2023/12/16 09:54:51;;;;;;;3.63;2.00;;;;;;;18.59;58.29;102943.63;4940434;28;20422;-74
2023/12/16 09:57:17;;;;;;;3.40;1.90;;;;;;;18.55;58.58;102933.97;4940953;28;20957;-74
2023/12/16 09:59:42;;;;;;;2.50;1.70;;;;;;;18.55;58.77;102928.25;4935817;29;20430;-74
2023/12/16 10:02:27;;;;;;;3.13;1.67;;;;;;;18.60;57.98;102933.88;4940317;28;20186;-74
2023/12/16 10:04:58;;;;;;;3.60;1.97;;;;;;;18.57;58.60;102930.81;4921703;28;20182;-75
2023/12/16 10:07:24;;;;;;;3.80;1.80;;;;;;;18.60;58.32;102935.88;4955666;28;20811;-75
2023/12/16 10:09:50;;;;;;;2.90;1.63;;;;;;;18.59;58.18;102929.31;4952856;28;20480;-75
2023/12/16 10:12:15;;;;;;;2.90;1.60;;;;;;;18.60;58.19;102942.47;4955087;28;20205;-74
2023/12/16 10:14:47;;;;;;;2.77;1.70;;;;;;;18.63;58.41;102941.84;4939226;28;20178;-74
2023/12/16 10:17:16;;;;;;;3.37;2.10;;;;;;;18.59;58.50;102943.63;4938947;28;20210;-75
2023/12/16 10:19:43;;;;;;;3.37;1.93;;;;;;;18.58;58.36;102933.34;4939231;28;20430;-74
2023/12/16 10:22:09;;;;;;;3.97;1.80;;;;;;;18.59;58.64;102932.19;4939116;28;20418;-74
2023/12/16 10:24:36;;;;;;;2.20;1.40;;;;;;;18.57;58.72;102930.81;4953151;28;20422;-74
2023/12/16 10:27:04;;;;;;;3.30;1.83;;;;;;;18.60;57.97;102931.00;4920129;28;20967;-74
2023/12/16 10:29:31;;;;;;;3.23;1.83;;;;;;;18.59;58.49;102926.47;4954186;28;20418;-74
2023/12/16 10:31:57;;;;;;;3.20;1.80;;;;;;;18.57;58.57;102914.47;4937478;28;20438;-74
2023/12/16 10:34:22;;;;;;;3.20;1.60;;;;;;;18.59;58.31;102912.16;4934371;28;20513;-74
2023/12/16 10:36:48;;;;;;;2.27;1.63;;;;;;;18.61;58.39;102914.72;4921480;28;20187;-75
2023/12/16 10:39:14;;;;;;;3.97;2.00;;;;;;;18.63;57.73;102915.22;4937713;28;20197;-74
2023/12/16 10:41:39;;;;;;;3.40;2.30;;;;;;;18.64;58.30;102920.63;4937240;28;20159;-75
2023/12/16 10:44:04;;;;;;;2.90;1.40;;;;;;;18.61;58.50;102915.53;4935853;28;20189;-75
2023/12/16 10:46:36;;;;;;;3.17;2.03;;;;;;;18.63;58.09;102909.50;4935142;29;20175;-74
2023/12/16 10:49:02;;;;;;;3.60;2.27;;;;;;;18.62;58.50;102914.38;4934634;28;20269;-72
2023/12/16 10:51:28;;;;;;;2.50;1.57;;;;;;;18.60;58.45;102916.72;4938852;28;20413;-72
2023/12/16 10:54:06;;;;;;;2.37;1.60;;;;;;;18.63;58.06;102901.78;4938098;28;21023;-72
2023/12/16 10:56:33;;;;;;;4.17;2.37;;;;;;;18.60;58.20;102896.69;4938519;28;20216;-72
2023/12/16 10:59:05;;;;;;;3.87;1.97;;;;;;;18.62;58.33;102894.34;4938747;28;20456;-72
2023/12/16 11:01:33;;;;;;;3.73;2.10;;;;;;;18.63;58.40;102893.19;4957584;28;20445;-72
2023/12/16 11:04:22;;;;;;;3.47;2.03;;;;;;;18.63;58.42;102890.34;4957018;28;20467;-72
2023/12/16 11:07:02;;;;;;;2.70;1.70;;;;;;;18.65;57.88;102893.72;4941144;28;20438;-72
2023/12/16 11:09:28;;;;;;;3.30;1.70;;;;;;;18.64;58.19;102886.31;4971220;28;20823;-72
2023/12/16 11:11:56;;;;;;;2.30;1.67;;;;;;;18.66;57.70;102883.94;4951283;28;20449;-72
2023/12/16 11:14:21;;;;;;;3.20;1.80;;;;;;;18.64;58.24;102879.72;4938710;28;20201;-72
2023/12/16 11:17:05;;;;;;;2.43;1.40;;;;;;;18.64;58.19;102880.56;4953922;28;20430;-72
2023/12/16 11:19:33;;;;;;;2.50;1.50;;;;;;;18.63;58.40;102881.75;4953693;28;20178;-72